sensor_id;sensor_type;location;lat;lon;timestamp;temperature;humidity
23873;DHT22;42884;50.718;4.630;2023-09-07T00:00:13;18.10;99.90
23873;DHT22;42884;50.718;4.630;2023-09-07T00:02:38;18.00;99.90
23873;DHT22;42884;50.718;4.630;2023-09-07T00:05:05;18.00;99.90
23873;DHT22;42884;50.718;4.630;2023-09-07T00:07:31;18.00;99.90
23873;DHT22;42884;50.718;4.630;2023-09-07T00:09:57;17.90;99.90
23873;DHT22;42884;50.718;4.630;2023-09-07T00:12:22;17.80;99.90
23873;DHT22;42884;50.718;4.630;2023-09-07T00:14:48;17.80;99.90
23873;DHT22;42884;50.718;4.630;2023-09-07T00:17:13;17.80;99.90
23873;DHT22;42884;50.718;4.630;2023-09-07T00:19:39;17.70;99.90
23873;DHT22;42884;50.718;4.630;2023-09-07T00:22:04;17.70;99.90
23873;DHT22;42884;50.718;4.630;2023-09-07T00:24:30;17.70;99.90
23873;DHT22;42884;50.718;4.630;2023-09-07T00:26:57;17.60;99.90
23873;DHT22;42884;50.718;4.630;2023-09-07T00:29:22;17.60;99.90
23873;DHT22;42884;50.718;4.630;2023-09-07T00:31:48;17.60;99.90
23873;DHT22;42884;50.718;4.630;2023-09-07T00:34:14;17.60;99.90
23873;DHT22;42884;50.718;4.630;2023-09-07T00:36:39;17.60;99.90
23873;DHT22;42884;50.718;4.630;2023-09-07T00:39:05;17.50;99.90
23873;DHT22;42884;50.718;4.630;2023-09-07T00:41:30;17.50;99.90
23873;DHT22;42884;50.718;4.630;2023-09-07T00:43:56;17.40;99.90
23873;DHT22;42884;50.718;4.630;2023-09-07T00:46:22;17.40;99.90
23873;DHT22;42884;50.718;4.630;2023-09-07T00:48:48;17.40;99.90
23873;DHT22;42884;50.718;4.630;2023-09-07T00:51:13;17.40;99.90
23873;DHT22;42884;50.718;4.630;2023-09-07T00:53:39;17.30;99.90
23873;DHT22;42884;50.718;4.630;2023-09-07T00:56:05;17.30;99.90
23873;DHT22;42884;50.718;4.630;2023-09-07T00:58:32;17.30;99.90
23873;DHT22;42884;50.718;4.630;2023-09-07T01:01:00;17.30;99.90
23873;DHT22;42884;50.718;4.630;2023-09-07T01:03:25;17.20;99.90
23873;DHT22;42884;50.718;4.630;2023-09-07T01:08:19;17.20;99.90
23873;DHT22;42884;50.718;4.630;2023-09-07T01:10:48;17.20;99.90
23873;DHT22;42884;50.718;4.630;2023-09-07T01:13:14;17.10;99.90
23873;DHT22;42884;50.718;4.630;2023-09-07T01:15:39;17.10;99.90
23873;DHT22;42884;50.718;4.630;2023-09-07T01:18:05;17.00;99.90
23873;DHT22;42884;50.718;4.630;2023-09-07T01:20:31;17.00;99.90
23873;DHT22;42884;50.718;4.630;2023-09-07T01:22:57;17.00;99.90
23873;DHT22;42884;50.718;4.630;2023-09-07T01:25:23;17.00;99.90
23873;DHT22;42884;50.718;4.630;2023-09-07T01:27:48;16.90;99.90
23873;DHT22;42884;50.718;4.630;2023-09-07T01:30:15;16.90;99.90
23873;DHT22;42884;50.718;4.630;2023-09-07T01:32:41;16.90;99.90
23873;DHT22;42884;50.718;4.630;2023-09-07T01:35:06;16.90;99.90
23873;DHT22;42884;50.718;4.630;2023-09-07T01:37:35;16.80;99.90
23873;DHT22;42884;50.718;4.630;2023-09-07T01:40:00;16.80;99.90
23873;DHT22;42884;50.718;4.630;2023-09-07T01:42:26;16.80;99.90
23873;DHT22;42884;50.718;4.630;2023-09-07T01:44:52;16.80;99.90
23873;DHT22;42884;50.718;4.630;2023-09-07T01:47:17;16.80;99.90
23873;DHT22;42884;50.718;4.630;2023-09-07T01:49:43;16.70;99.90
23873;DHT22;42884;50.718;4.630;2023-09-07T01:52:09;16.70;99.90
23873;DHT22;42884;50.718;4.630;2023-09-07T01:54:35;16.70;99.90
23873;DHT22;42884;50.718;4.630;2023-09-07T01:57:00;16.70;99.90
23873;DHT22;42884;50.718;4.630;2023-09-07T01:59:26;16.60;99.90
23873;DHT22;42884;50.718;4.630;2023-09-07T02:01:51;16.60;99.90
23873;DHT22;42884;50.718;4.630;2023-09-07T02:04:17;16.60;99.90
23873;DHT22;42884;50.718;4.630;2023-09-07T02:06:42;16.60;99.90
23873;DHT22;42884;50.718;4.630;2023-09-07T02:09:08;16.50;99.90
23873;DHT22;42884;50.718;4.630;2023-09-07T02:11:33;16.50;99.90
23873;DHT22;42884;50.718;4.630;2023-09-07T02:13:59;16.50;99.90
23873;DHT22;42884;50.718;4.630;2023-09-07T02:16:25;16.40;99.90
23873;DHT22;42884;50.718;4.630;2023-09-07T02:18:59;16.40;99.90
23873;DHT22;42884;50.718;4.630;2023-09-07T02:21:25;16.30;99.90
23873;DHT22;42884;50.718;4.630;2023-09-07T02:23:51;16.30;99.90
23873;DHT22;42884;50.718;4.630;2023-09-07T02:26:17;16.30;99.90
23873;DHT22;42884;50.718;4.630;2023-09-07T02:28:42;16.30;99.90
23873;DHT22;42884;50.718;4.630;2023-09-07T02:31:09;16.20;99.90
23873;DHT22;42884;50.718;4.630;2023-09-07T02:33:38;16.20;99.90
23873;DHT22;42884;50.718;4.630;2023-09-07T02:36:04;16.20;99.90
23873;DHT22;42884;50.718;4.630;2023-09-07T02:38:29;16.10;99.90
23873;DHT22;42884;50.718;4.630;2023-09-07T02:40:55;16.20;99.90
23873;DHT22;42884;50.718;4.630;2023-09-07T02:43:21;16.20;99.90
23873;DHT22;42884;50.718;4.630;2023-09-07T02:45:48;16.10;99.90
23873;DHT22;42884;50.718;4.630;2023-09-07T02:48:13;16.10;99.90
23873;DHT22;42884;50.718;4.630;2023-09-07T02:50:39;16.10;99.90
23873;DHT22;42884;50.718;4.630;2023-09-07T02:53:05;16.10;99.90
23873;DHT22;42884;50.718;4.630;2023-09-07T02:55:30;16.00;99.90
23873;DHT22;42884;50.718;4.630;2023-09-07T02:57:57;16.00;99.90
23873;DHT22;42884;50.718;4.630;2023-09-07T03:00:25;16.00;99.90
23873;DHT22;42884;50.718;4.630;2023-09-07T03:02:51;16.00;99.90
23873;DHT22;42884;50.718;4.630;2023-09-07T03:05:17;16.00;99.90
23873;DHT22;42884;50.718;4.630;2023-09-07T03:07:44;15.90;99.90
23873;DHT22;42884;50.718;4.630;2023-09-07T03:10:10;15.90;99.90
23873;DHT22;42884;50.718;4.630;2023-09-07T03:12:35;15.90;99.90
23873;DHT22;42884;50.718;4.630;2023-09-07T03:15:01;15.90;99.90
23873;DHT22;42884;50.718;4.630;2023-09-07T03:17:29;15.90;99.90
23873;DHT22;42884;50.718;4.630;2023-09-07T03:19:55;15.90;99.90
23873;DHT22;42884;50.718;4.630;2023-09-07T03:22:21;15.80;99.90
23873;DHT22;42884;50.718;4.630;2023-09-07T03:24:49;15.80;99.90
23873;DHT22;42884;50.718;4.630;2023-09-07T03:27:14;15.80;99.90
23873;DHT22;42884;50.718;4.630;2023-09-07T03:29:40;15.80;99.90
23873;DHT22;42884;50.718;4.630;2023-09-07T03:32:05;15.80;99.90
23873;DHT22;42884;50.718;4.630;2023-09-07T03:34:31;15.80;99.90
23873;DHT22;42884;50.718;4.630;2023-09-07T03:36:57;15.70;99.90
23873;DHT22;42884;50.718;4.630;2023-09-07T03:39:27;15.70;99.90
23873;DHT22;42884;50.718;4.630;2023-09-07T03:41:53;15.70;99.90
23873;DHT22;42884;50.718;4.630;2023-09-07T03:44:19;15.70;99.90
23873;DHT22;42884;50.718;4.630;2023-09-07T03:46:45;15.60;99.90
23873;DHT22;42884;50.718;4.630;2023-09-07T03:49:10;15.60;99.90
23873;DHT22;42884;50.718;4.630;2023-09-07T03:51:36;15.60;99.90
23873;DHT22;42884;50.718;4.630;2023-09-07T03:54:01;15.50;99.90
23873;DHT22;42884;50.718;4.630;2023-09-07T03:56:27;15.50;99.90
23873;DHT22;42884;50.718;4.630;2023-09-07T03:58:52;15.50;99.90
23873;DHT22;42884;50.718;4.630;2023-09-07T04:01:18;15.50;99.90
23873;DHT22;42884;50.718;4.630;2023-09-07T04:03:44;15.50;99.90
23873;DHT22;42884;50.718;4.630;2023-09-07T04:06:09;15.40;99.90
23873;DHT22;42884;50.718;4.630;2023-09-07T04:08:35;15.50;99.90
23873;DHT22;42884;50.718;4.630;2023-09-07T04:11:04;15.50;99.90
23873;DHT22;42884;50.718;4.630;2023-09-07T04:13:30;15.40;99.90
23873;DHT22;42884;50.718;4.630;2023-09-07T04:15:55;15.40;99.90
23873;DHT22;42884;50.718;4.630;2023-09-07T04:18:26;15.40;99.90
23873;DHT22;42884;50.718;4.630;2023-09-07T04:20:52;15.30;99.90
23873;DHT22;42884;50.718;4.630;2023-09-07T04:23:18;15.30;99.90
23873;DHT22;42884;50.718;4.630;2023-09-07T04:25:43;15.30;99.90
23873;DHT22;42884;50.718;4.630;2023-09-07T04:28:09;15.30;99.90
23873;DHT22;42884;50.718;4.630;2023-09-07T04:30:38;15.20;99.90
23873;DHT22;42884;50.718;4.630;2023-09-07T04:33:03;15.30;99.90
23873;DHT22;42884;50.718;4.630;2023-09-07T04:35:29;15.20;99.90
23873;DHT22;42884;50.718;4.630;2023-09-07T04:37:55;15.20;99.90
23873;DHT22;42884;50.718;4.630;2023-09-07T04:40:21;15.10;99.90
23873;DHT22;42884;50.718;4.630;2023-09-07T04:42:47;15.10;99.90
23873;DHT22;42884;50.718;4.630;2023-09-07T04:45:13;15.10;99.90
23873;DHT22;42884;50.718;4.630;2023-09-07T04:47:38;15.10;99.90
23873;DHT22;42884;50.718;4.630;2023-09-07T04:50:04;15.10;99.90
23873;DHT22;42884;50.718;4.630;2023-09-07T04:52:30;15.10;99.90
23873;DHT22;42884;50.718;4.630;2023-09-07T04:54:55;15.10;99.90
23873;DHT22;42884;50.718;4.630;2023-09-07T04:57:21;15.10;99.90
23873;DHT22;42884;50.718;4.630;2023-09-07T04:59:46;15.10;99.90
23873;DHT22;42884;50.718;4.630;2023-09-07T05:02:12;15.10;99.90
23873;DHT22;42884;50.718;4.630;2023-09-07T05:04:38;15.10;99.90
23873;DHT22;42884;50.718;4.630;2023-09-07T05:07:04;15.10;99.90
23873;DHT22;42884;50.718;4.630;2023-09-07T05:09:29;15.00;99.90
23873;DHT22;42884;50.718;4.630;2023-09-07T05:11:55;15.00;99.90
23873;DHT22;42884;50.718;4.630;2023-09-07T05:14:22;15.10;99.90
23873;DHT22;42884;50.718;4.630;2023-09-07T05:16:48;15.10;99.90
23873;DHT22;42884;50.718;4.630;2023-09-07T05:19:13;15.00;99.90
23873;DHT22;42884;50.718;4.630;2023-09-07T05:21:39;15.00;99.90
23873;DHT22;42884;50.718;4.630;2023-09-07T05:24:05;15.00;99.90
23873;DHT22;42884;50.718;4.630;2023-09-07T05:26:30;15.00;99.90
23873;DHT22;42884;50.718;4.630;2023-09-07T05:28:56;15.00;99.90
23873;DHT22;42884;50.718;4.630;2023-09-07T05:31:22;15.10;99.90
23873;DHT22;42884;50.718;4.630;2023-09-07T05:33:47;15.00;99.90
23873;DHT22;42884;50.718;4.630;2023-09-07T05:36:13;15.00;99.90
23873;DHT22;42884;50.718;4.630;2023-09-07T05:38:38;15.00;99.90
23873;DHT22;42884;50.718;4.630;2023-09-07T05:41:06;15.00;99.90
23873;DHT22;42884;50.718;4.630;2023-09-07T05:43:32;15.00;99.90
23873;DHT22;42884;50.718;4.630;2023-09-07T05:45:58;15.10;99.90
23873;DHT22;42884;50.718;4.630;2023-09-07T05:48:23;15.10;99.90
23873;DHT22;42884;50.718;4.630;2023-09-07T05:50:49;15.10;99.90
23873;DHT22;42884;50.718;4.630;2023-09-07T05:53:14;15.20;99.90
23873;DHT22;42884;50.718;4.630;2023-09-07T05:55:40;15.20;99.90
23873;DHT22;42884;50.718;4.630;2023-09-07T05:58:06;15.30;99.90
23873;DHT22;42884;50.718;4.630;2023-09-07T06:00:32;15.30;99.90
23873;DHT22;42884;50.718;4.630;2023-09-07T06:02:59;15.40;99.90
23873;DHT22;42884;50.718;4.630;2023-09-07T06:05:24;15.50;99.90
23873;DHT22;42884;50.718;4.630;2023-09-07T06:07:50;15.50;99.90
23873;DHT22;42884;50.718;4.630;2023-09-07T06:10:18;15.60;99.90
23873;DHT22;42884;50.718;4.630;2023-09-07T06:12:44;15.70;99.90
23873;DHT22;42884;50.718;4.630;2023-09-07T06:15:10;15.70;99.90
23873;DHT22;42884;50.718;4.630;2023-09-07T06:17:36;15.80;99.90
23873;DHT22;42884;50.718;4.630;2023-09-07T06:20:01;15.80;99.90
23873;DHT22;42884;50.718;4.630;2023-09-07T06:22:28;15.90;99.90
23873;DHT22;42884;50.718;4.630;2023-09-07T06:24:53;16.00;99.90
23873;DHT22;42884;50.718;4.630;2023-09-07T06:27:22;16.10;99.90
23873;DHT22;42884;50.718;4.630;2023-09-07T06:29:47;16.20;99.90
23873;DHT22;42884;50.718;4.630;2023-09-07T06:32:13;16.30;99.90
23873;DHT22;42884;50.718;4.630;2023-09-07T06:34:39;16.30;99.90
23873;DHT22;42884;50.718;4.630;2023-09-07T06:37:04;16.40;99.90
23873;DHT22;42884;50.718;4.630;2023-09-07T06:39:30;16.50;99.90
23873;DHT22;42884;50.718;4.630;2023-09-07T06:41:55;16.70;99.90
23873;DHT22;42884;50.718;4.630;2023-09-07T06:44:21;16.70;99.90
23873;DHT22;42884;50.718;4.630;2023-09-07T06:46:47;16.80;99.90
23873;DHT22;42884;50.718;4.630;2023-09-07T06:49:12;16.90;99.90
23873;DHT22;42884;50.718;4.630;2023-09-07T06:51:38;17.00;99.90
23873;DHT22;42884;50.718;4.630;2023-09-07T06:54:06;17.00;99.90
23873;DHT22;42884;50.718;4.630;2023-09-07T06:56:37;17.10;99.90
23873;DHT22;42884;50.718;4.630;2023-09-07T06:59:03;17.20;99.90
23873;DHT22;42884;50.718;4.630;2023-09-07T07:01:29;17.30;99.90
23873;DHT22;42884;50.718;4.630;2023-09-07T07:03:55;17.40;99.90
23873;DHT22;42884;50.718;4.630;2023-09-07T07:06:22;17.50;99.90
23873;DHT22;42884;50.718;4.630;2023-09-07T07:08:51;17.60;99.90
23873;DHT22;42884;50.718;4.630;2023-09-07T07:11:17;17.70;99.90
23873;DHT22;42884;50.718;4.630;2023-09-07T07:13:42;17.80;99.90
23873;DHT22;42884;50.718;4.630;2023-09-07T07:16:09;17.90;99.90
23873;DHT22;42884;50.718;4.630;2023-09-07T07:18:34;18.00;99.90
23873;DHT22;42884;50.718;4.630;2023-09-07T07:21:00;18.10;99.90
23873;DHT22;42884;50.718;4.630;2023-09-07T07:23:25;18.20;99.90
23873;DHT22;42884;50.718;4.630;2023-09-07T07:25:52;18.30;99.90
23873;DHT22;42884;50.718;4.630;2023-09-07T07:28:22;18.40;99.90
23873;DHT22;42884;50.718;4.630;2023-09-07T07:30:47;18.50;99.90
23873;DHT22;42884;50.718;4.630;2023-09-07T07:33:17;18.60;99.90
23873;DHT22;42884;50.718;4.630;2023-09-07T07:35:43;18.70;99.90
23873;DHT22;42884;50.718;4.630;2023-09-07T07:38:11;18.80;99.90
23873;DHT22;42884;50.718;4.630;2023-09-07T07:40:39;18.90;99.90
23873;DHT22;42884;50.718;4.630;2023-09-07T07:43:04;19.00;99.90
23873;DHT22;42884;50.718;4.630;2023-09-07T07:45:31;19.10;99.90
23873;DHT22;42884;50.718;4.630;2023-09-07T07:48:02;19.20;99.90
23873;DHT22;42884;50.718;4.630;2023-09-07T07:50:36;19.30;99.90
23873;DHT22;42884;50.718;4.630;2023-09-07T07:53:01;19.50;99.90
23873;DHT22;42884;50.718;4.630;2023-09-07T07:55:27;19.60;99.90
23873;DHT22;42884;50.718;4.630;2023-09-07T07:57:57;19.70;99.90
23873;DHT22;42884;50.718;4.630;2023-09-07T08:00:23;19.90;99.90
23873;DHT22;42884;50.718;4.630;2023-09-07T08:02:48;20.00;99.90
23873;DHT22;42884;50.718;4.630;2023-09-07T08:05:17;20.10;99.90
23873;DHT22;42884;50.718;4.630;2023-09-07T08:07:47;20.30;99.90
23873;DHT22;42884;50.718;4.630;2023-09-07T08:10:14;20.30;99.90
23873;DHT22;42884;50.718;4.630;2023-09-07T08:12:39;20.50;99.90
23873;DHT22;42884;50.718;4.630;2023-09-07T08:15:05;20.70;99.90
23873;DHT22;42884;50.718;4.630;2023-09-07T08:17:31;20.80;99.90
23873;DHT22;42884;50.718;4.630;2023-09-07T08:19:56;21.00;99.90
23873;DHT22;42884;50.718;4.630;2023-09-07T08:22:22;21.20;99.90
23873;DHT22;42884;50.718;4.630;2023-09-07T08:24:48;21.30;99.90
23873;DHT22;42884;50.718;4.630;2023-09-07T08:27:14;21.50;99.90
23873;DHT22;42884;50.718;4.630;2023-09-07T08:29:44;21.70;99.90
23873;DHT22;42884;50.718;4.630;2023-09-07T08:32:13;21.90;99.90
23873;DHT22;42884;50.718;4.630;2023-09-07T08:34:41;22.00;99.90
23873;DHT22;42884;50.718;4.630;2023-09-07T08:37:07;22.20;99.90
23873;DHT22;42884;50.718;4.630;2023-09-07T08:39:35;22.40;99.90
23873;DHT22;42884;50.718;4.630;2023-09-07T08:42:07;22.60;99.90
23873;DHT22;42884;50.718;4.630;2023-09-07T08:44:36;22.80;99.90
23873;DHT22;42884;50.718;4.630;2023-09-07T08:47:02;22.90;99.90
23873;DHT22;42884;50.718;4.630;2023-09-07T08:49:29;23.00;99.90
23873;DHT22;42884;50.718;4.630;2023-09-07T08:51:57;23.20;99.90
23873;DHT22;42884;50.718;4.630;2023-09-07T08:54:23;23.40;99.90
23873;DHT22;42884;50.718;4.630;2023-09-07T08:56:50;23.70;99.90
23873;DHT22;42884;50.718;4.630;2023-09-07T08:59:15;24.10;99.90
23873;DHT22;42884;50.718;4.630;2023-09-07T09:01:41;24.60;99.90
23873;DHT22;42884;50.718;4.630;2023-09-07T09:04:07;25.20;99.90
23873;DHT22;42884;50.718;4.630;2023-09-07T09:06:33;25.90;99.90
23873;DHT22;42884;50.718;4.630;2023-09-07T09:08:59;26.70;99.90
23873;DHT22;42884;50.718;4.630;2023-09-07T09:11:30;27.50;99.90
23873;DHT22;42884;50.718;4.630;2023-09-07T09:13:56;27.90;99.90
23873;DHT22;42884;50.718;4.630;2023-09-07T09:16:21;28.20;99.90
23873;DHT22;42884;50.718;4.630;2023-09-07T09:18:50;28.90;99.90
23873;DHT22;42884;50.718;4.630;2023-09-07T09:21:24;29.60;99.90
23873;DHT22;42884;50.718;4.630;2023-09-07T09:23:51;30.30;99.90
23873;DHT22;42884;50.718;4.630;2023-09-07T09:26:17;31.20;99.90
23873;DHT22;42884;50.718;4.630;2023-09-07T09:28:46;31.60;99.90
23873;DHT22;42884;50.718;4.630;2023-09-07T09:31:11;32.00;99.90
23873;DHT22;42884;50.718;4.630;2023-09-07T09:33:41;32.60;99.90
23873;DHT22;42884;50.718;4.630;2023-09-07T09:36:10;33.10;99.90
23873;DHT22;42884;50.718;4.630;2023-09-07T09:38:36;33.50;99.90
23873;DHT22;42884;50.718;4.630;2023-09-07T09:41:01;33.50;99.90
23873;DHT22;42884;50.718;4.630;2023-09-07T09:43:30;33.70;99.90
23873;DHT22;42884;50.718;4.630;2023-09-07T09:45:56;34.20;99.90
23873;DHT22;42884;50.718;4.630;2023-09-07T09:48:22;34.40;99.90
23873;DHT22;42884;50.718;4.630;2023-09-07T09:50:48;34.30;99.00
23873;DHT22;42884;50.718;4.630;2023-09-07T09:53:16;34.40;99.70
23873;DHT22;42884;50.718;4.630;2023-09-07T09:55:49;34.30;99.90
23873;DHT22;42884;50.718;4.630;2023-09-07T09:58:15;34.20;98.90
23873;DHT22;42884;50.718;4.630;2023-09-07T10:00:44;34.60;99.90
23873;DHT22;42884;50.718;4.630;2023-09-07T10:03:13;34.90;99.40
23873;DHT22;42884;50.718;4.630;2023-09-07T10:05:40;35.00;96.90
23873;DHT22;42884;50.718;4.630;2023-09-07T10:08:11;35.20;98.00
23873;DHT22;42884;50.718;4.630;2023-09-07T10:10:38;34.90;97.30
23873;DHT22;42884;50.718;4.630;2023-09-07T10:13:06;35.00;96.30
23873;DHT22;42884;50.718;4.630;2023-09-07T10:15:32;35.30;96.80
23873;DHT22;42884;50.718;4.630;2023-09-07T10:23:18;36.10;95.60
23873;DHT22;42884;50.718;4.630;2023-09-07T10:25:51;36.40;95.10
23873;DHT22;42884;50.718;4.630;2023-09-07T10:28:20;36.40;94.10
23873;DHT22;42884;50.718;4.630;2023-09-07T10:30:57;36.50;94.00
23873;DHT22;42884;50.718;4.630;2023-09-07T10:33:23;36.40;94.30
23873;DHT22;42884;50.718;4.630;2023-09-07T10:35:49;36.20;93.50
23873;DHT22;42884;50.718;4.630;2023-09-07T10:38:14;35.50;94.20
23873;DHT22;42884;50.718;4.630;2023-09-07T10:40:41;35.20;91.90
23873;DHT22;42884;50.718;4.630;2023-09-07T10:43:09;35.10;93.50
23873;DHT22;42884;50.718;4.630;2023-09-07T10:45:37;35.20;94.40
23873;DHT22;42884;50.718;4.630;2023-09-07T10:48:05;35.60;94.50
23873;DHT22;42884;50.718;4.630;2023-09-07T10:50:41;36.00;94.60
23873;DHT22;42884;50.718;4.630;2023-09-07T10:53:07;35.90;93.40
23873;DHT22;42884;50.718;4.630;2023-09-07T10:55:36;35.60;92.70
23873;DHT22;42884;50.718;4.630;2023-09-07T10:58:04;35.00;92.20
23873;DHT22;42884;50.718;4.630;2023-09-07T11:00:29;34.80;94.00
23873;DHT22;42884;50.718;4.630;2023-09-07T11:02:55;34.20;93.90
23873;DHT22;42884;50.718;4.630;2023-09-07T11:05:20;33.70;94.20
23873;DHT22;42884;50.718;4.630;2023-09-07T11:07:46;33.20;95.60
23873;DHT22;42884;50.718;4.630;2023-09-07T11:10:12;33.10;96.10
23873;DHT22;42884;50.718;4.630;2023-09-07T11:12:38;33.00;95.70
23873;DHT22;42884;50.718;4.630;2023-09-07T11:15:05;33.00;96.20
23873;DHT22;42884;50.718;4.630;2023-09-07T11:17:33;33.00;96.70
23873;DHT22;42884;50.718;4.630;2023-09-07T11:20:02;32.60;94.20
23873;DHT22;42884;50.718;4.630;2023-09-07T11:22:30;32.50;97.30
23873;DHT22;42884;50.718;4.630;2023-09-07T11:24:56;32.30;96.70
23873;DHT22;42884;50.718;4.630;2023-09-07T11:27:21;31.90;96.90
23873;DHT22;42884;50.718;4.630;2023-09-07T11:29:52;31.50;97.70
23873;DHT22;42884;50.718;4.630;2023-09-07T11:32:20;31.40;99.60
23873;DHT22;42884;50.718;4.630;2023-09-07T11:34:47;31.20;96.60
23873;DHT22;42884;50.718;4.630;2023-09-07T11:37:14;31.00;97.30
23873;DHT22;42884;50.718;4.630;2023-09-07T11:39:40;30.70;97.30
23873;DHT22;42884;50.718;4.630;2023-09-07T11:42:05;30.70;99.60
23873;DHT22;42884;50.718;4.630;2023-09-07T11:44:31;30.60;97.70
23873;DHT22;42884;50.718;4.630;2023-09-07T11:46:57;30.90;99.30
23873;DHT22;42884;50.718;4.630;2023-09-07T11:49:22;31.00;98.00
23873;DHT22;42884;50.718;4.630;2023-09-07T11:51:49;31.20;96.80
23873;DHT22;42884;50.718;4.630;2023-09-07T11:54:15;31.30;95.80
23873;DHT22;42884;50.718;4.630;2023-09-07T11:56:41;31.60;97.50
23873;DHT22;42884;50.718;4.630;2023-09-07T11:59:11;31.70;97.60
23873;DHT22;42884;50.718;4.630;2023-09-07T12:01:39;31.80;97.20
23873;DHT22;42884;50.718;4.630;2023-09-07T12:04:05;32.10;96.70
23873;DHT22;42884;50.718;4.630;2023-09-07T12:06:34;32.20;97.50
23873;DHT22;42884;50.718;4.630;2023-09-07T12:09:05;32.50;96.50
23873;DHT22;42884;50.718;4.630;2023-09-07T12:11:42;32.70;97.50
23873;DHT22;42884;50.718;4.630;2023-09-07T12:14:09;33.20;95.80
23873;DHT22;42884;50.718;4.630;2023-09-07T12:16:34;32.80;97.10
23873;DHT22;42884;50.718;4.630;2023-09-07T12:19:04;33.00;97.70
23873;DHT22;42884;50.718;4.630;2023-09-07T12:21:35;33.50;98.20
23873;DHT22;42884;50.718;4.630;2023-09-07T12:24:05;33.90;97.30
23873;DHT22;42884;50.718;4.630;2023-09-07T12:26:31;34.10;96.90
23873;DHT22;42884;50.718;4.630;2023-09-07T12:28:56;34.10;95.60
23873;DHT22;42884;50.718;4.630;2023-09-07T12:31:26;34.40;95.50
23873;DHT22;42884;50.718;4.630;2023-09-07T12:33:52;34.70;95.90
23873;DHT22;42884;50.718;4.630;2023-09-07T12:36:17;34.60;96.50
23873;DHT22;42884;50.718;4.630;2023-09-07T12:38:48;34.40;93.90
23873;DHT22;42884;50.718;4.630;2023-09-07T12:41:17;34.20;95.70
23873;DHT22;42884;50.718;4.630;2023-09-07T12:43:44;34.40;96.00
23873;DHT22;42884;50.718;4.630;2023-09-07T12:46:09;34.50;95.70
23873;DHT22;42884;50.718;4.630;2023-09-07T12:48:35;34.90;95.20
23873;DHT22;42884;50.718;4.630;2023-09-07T12:51:01;35.40;95.40
23873;DHT22;42884;50.718;4.630;2023-09-07T12:53:26;35.50;95.10
23873;DHT22;42884;50.718;4.630;2023-09-07T12:55:52;35.70;94.40
23873;DHT22;42884;50.718;4.630;2023-09-07T12:58:18;35.50;95.70
23873;DHT22;42884;50.718;4.630;2023-09-07T13:01:04;35.70;94.70
23873;DHT22;42884;50.718;4.630;2023-09-07T13:03:29;36.00;93.40
23873;DHT22;42884;50.718;4.630;2023-09-07T13:05:55;36.20;93.60
23873;DHT22;42884;50.718;4.630;2023-09-07T13:08:21;36.20;93.40
23873;DHT22;42884;50.718;4.630;2023-09-07T13:10:46;36.00;94.50
23873;DHT22;42884;50.718;4.630;2023-09-07T13:13:12;35.90;93.60
23873;DHT22;42884;50.718;4.630;2023-09-07T13:15:38;35.70;93.00
23873;DHT22;42884;50.718;4.630;2023-09-07T13:18:03;35.50;93.80
23873;DHT22;42884;50.718;4.630;2023-09-07T13:20:32;36.00;94.60
23873;DHT22;42884;50.718;4.630;2023-09-07T13:23:00;35.60;93.70
23873;DHT22;42884;50.718;4.630;2023-09-07T13:25:28;35.70;93.50
23873;DHT22;42884;50.718;4.630;2023-09-07T13:27:57;35.90;94.40
23873;DHT22;42884;50.718;4.630;2023-09-07T13:30:23;36.40;94.00
23873;DHT22;42884;50.718;4.630;2023-09-07T13:32:48;35.90;93.30
23873;DHT22;42884;50.718;4.630;2023-09-07T13:35:34;36.10;93.30
23873;DHT22;42884;50.718;4.630;2023-09-07T13:38:00;36.20;94.10
23873;DHT22;42884;50.718;4.630;2023-09-07T13:40:26;36.30;93.20
23873;DHT22;42884;50.718;4.630;2023-09-07T13:42:55;36.40;94.60
23873;DHT22;42884;50.718;4.630;2023-09-07T13:45:20;36.80;94.40
23873;DHT22;42884;50.718;4.630;2023-09-07T13:47:49;37.20;93.60
23873;DHT22;42884;50.718;4.630;2023-09-07T13:50:17;37.20;94.10
23873;DHT22;42884;50.718;4.630;2023-09-07T13:52:42;37.00;92.10
23873;DHT22;42884;50.718;4.630;2023-09-07T13:55:08;37.20;93.60
23873;DHT22;42884;50.718;4.630;2023-09-07T13:57:34;37.30;91.80
23873;DHT22;42884;50.718;4.630;2023-09-07T14:00:00;37.20;93.90
23873;DHT22;42884;50.718;4.630;2023-09-07T14:02:30;37.50;93.10
23873;DHT22;42884;50.718;4.630;2023-09-07T14:04:58;37.50;94.60
23873;DHT22;42884;50.718;4.630;2023-09-07T14:07:23;37.80;93.30
23873;DHT22;42884;50.718;4.630;2023-09-07T14:09:56;37.70;92.60
23873;DHT22;42884;50.718;4.630;2023-09-07T14:12:21;37.80;91.90
23873;DHT22;42884;50.718;4.630;2023-09-07T14:14:47;37.90;92.80
23873;DHT22;42884;50.718;4.630;2023-09-07T14:17:13;38.00;89.70
23873;DHT22;42884;50.718;4.630;2023-09-07T14:19:38;37.90;91.40
23873;DHT22;42884;50.718;4.630;2023-09-07T14:22:04;38.00;91.90
23873;DHT22;42884;50.718;4.630;2023-09-07T14:24:30;37.90;91.40
23873;DHT22;42884;50.718;4.630;2023-09-07T14:26:55;37.60;92.40
23873;DHT22;42884;50.718;4.630;2023-09-07T14:29:21;37.50;94.00
23873;DHT22;42884;50.718;4.630;2023-09-07T14:31:47;37.60;92.00
23873;DHT22;42884;50.718;4.630;2023-09-07T14:34:12;37.40;93.30
23873;DHT22;42884;50.718;4.630;2023-09-07T14:36:38;37.60;94.30
23873;DHT22;42884;50.718;4.630;2023-09-07T14:39:07;37.60;93.60
23873;DHT22;42884;50.718;4.630;2023-09-07T14:41:36;37.50;94.70
23873;DHT22;42884;50.718;4.630;2023-09-07T14:44:02;37.70;93.50
23873;DHT22;42884;50.718;4.630;2023-09-07T14:46:28;37.70;94.00
23873;DHT22;42884;50.718;4.630;2023-09-07T14:48:53;37.70;94.00
23873;DHT22;42884;50.718;4.630;2023-09-07T14:51:19;37.50;93.30
23873;DHT22;42884;50.718;4.630;2023-09-07T14:53:45;37.40;93.90
23873;DHT22;42884;50.718;4.630;2023-09-07T14:56:11;37.00;95.30
23873;DHT22;42884;50.718;4.630;2023-09-07T14:58:37;36.90;96.10
23873;DHT22;42884;50.718;4.630;2023-09-07T15:01:03;36.70;95.10
23873;DHT22;42884;50.718;4.630;2023-09-07T15:03:29;36.20;93.60
23873;DHT22;42884;50.718;4.630;2023-09-07T15:05:54;36.00;96.70
23873;DHT22;42884;50.718;4.630;2023-09-07T15:08:20;36.40;94.90
23873;DHT22;42884;50.718;4.630;2023-09-07T15:10:45;36.50;96.30
23873;DHT22;42884;50.718;4.630;2023-09-07T15:13:11;36.40;95.60
23873;DHT22;42884;50.718;4.630;2023-09-07T15:15:37;36.10;94.70
23873;DHT22;42884;50.718;4.630;2023-09-07T15:18:05;35.80;95.40
23873;DHT22;42884;50.718;4.630;2023-09-07T15:20:31;35.50;95.00
23873;DHT22;42884;50.718;4.630;2023-09-07T15:22:57;35.40;95.00
23873;DHT22;42884;50.718;4.630;2023-09-07T15:25:22;35.30;95.40
23873;DHT22;42884;50.718;4.630;2023-09-07T15:27:48;35.20;95.80
23873;DHT22;42884;50.718;4.630;2023-09-07T15:30:14;34.90;95.70
23873;DHT22;42884;50.718;4.630;2023-09-07T15:32:39;34.70;96.30